Beavercreek, Ohio
Current Conditions -  °F | °C
As of 2:58 PM on Tuesday 25 Nov 2014 (Local Time) from KFFO Reporting Station
Overcast Overcast  
Wind Chill: 31°   Ceiling: 2600
Heat Index: 39°   Visibility: 10mi
Dew Point: 28°   Wind: 12mph
Humidity: 66%   Direction: 260°W
Pressure: 30.11"   Gusts: NA
Location:  39.73°N, 84.06°W
Report Text: KFFO 251958Z AUTO 26010KT 10SM OVC026 04/M02 A3011 RMK AO2 SLP206 T00371022
Loading
Personal Weather Stations






























Interactive Weather Map New forecast layout! Learn more

10-Day Weather Forecast

Advertisements
Track Severe Weather on mobile